• Join FlightAware (Why Join?)
  • Login
  • US Flag 
12:04AM EDT


 

Airport Tracker/Info


-or-


 

Live Flight TrackerFlight Track Log ✈ N3726K ✈ 16-Jul-2013 ✈ KPEA - KLVN

Flight Track Log - Related Links

Times and Time Zones

All times are in EDT time to prevent confusion due to time zone crossing. See the N3726K flight status page for this flight to view local times or setup timezone preferences in your user account.

Time Position Orientation Groundspeed Altitude Reporting Facility
EDT Latitude Longitude Course Direction KTS MPH feet Rate Location/Type
06:03PM 41.5003 -92.9308 340° North 164 189 3,900  Level Minneapolis Center
06:04PM 41.5239 -92.9422 340° North 156 180 4,300 840 Climbing Minneapolis Center
06:05PM 41.5667 -92.9547 348° North 150 173 5,300 960 Climbing Minneapolis Center
06:06PM 41.6053 -92.9756 338° Northwest 141 162 6,300 840 Climbing Minneapolis Center
06:06PM 41.6428 -92.9689 North 152 175 7,000 660 Climbing Minneapolis Center
06:07PM 41.6883 -92.9614 North 160 184 7,600 480 Climbing Minneapolis Center
06:08PM 41.7322 -92.9653 356° North 162 186 8,000 180 Climbing Minneapolis Center
06:10PM 41.7767 -92.9781 348° North 180 207 8,000  Level Minneapolis Center
06:11PM 41.8358 -92.9828 357° North 195 224 8,000  Level Minneapolis Center
06:12PM 41.8894 -92.9881 356° North 195 224 8,000  Level Minneapolis Center
06:13PM 41.9481 -92.9928 357° North 196 226 8,000  Level Minneapolis Center
06:14PM 42.0022 -92.9986 355° North 196 226 8,000  Level Minneapolis Center
06:15PM 42.0606 -93.0031 357° North 195 224 8,000  Level Minneapolis Center
06:16PM 42.1142 -93.0067 357° North 193 222 8,000  Level Minneapolis Center
06:17PM 42.1683 -93.0117 356° North 196 226 8,000  Level Minneapolis Center
06:18PM 42.2181 -93.0144 358° North 193 222 8,000  Level Minneapolis Center
06:19PM 42.2719 -93.0186 357° North 193 222 8,000  Level Minneapolis Center
06:20PM 42.3364 -93.0250 356° North 194 223 8,000  Level Minneapolis Center
06:21PM 42.3881 -93.0286 357° North 192 221 8,000  Level Minneapolis Center
06:22PM 42.4411 -93.0333 356° North 192 221 8,000  Level Minneapolis Center
06:23PM 42.4942 -93.0383 356° North 192 221 8,000  Level Minneapolis Center
06:24PM 42.5597 -93.0433 357° North 194 223 8,000  Level Minneapolis Center
06:25PM 42.6208 -93.0469 358° North 195 224 8,000  Level Chicago Center
06:26PM 42.6739 -93.0553 353° North 195 224 8,000  Level Chicago Center
06:27PM 42.7250 -93.0706 348° North 193 222 8,000  Level Chicago Center
06:28PM 42.7883 -93.0717 359° North 193 222 8,000  Level Chicago Center
06:29PM 42.8433 -93.0683 North 196 226 8,000  Level Chicago Center
06:30PM 42.8875 -93.0728 356° North 192 221 8,000  Level Minneapolis Center
06:31PM 42.9392 -93.0761 357° North 189 217 8,000  Level Minneapolis Center
06:32PM 42.9936 -93.0706 North 193 222 8,000  Level Minneapolis Center
06:33PM 43.0450 -93.0722 359° North 191 220 8,000  Level Minneapolis Center
06:34PM 43.1042 -93.0919 346° North 184 212 8,000  Level Minneapolis Center
06:35PM 43.1544 -93.0983 355° North 184 212 8,000  Level Minneapolis Center
06:36PM 43.2053 -93.1022 357° North 183 211 8,000  Level Minneapolis Center
06:37PM 43.2572 -93.1069 356° North 185 213 8,000  Level Minneapolis Center
06:38PM 43.3225 -93.1094 358° North 191 220 8,000  Level Minneapolis Center
06:40PM 43.3742 -93.1136 357° North 189 217 8,000  Level Minneapolis Center
06:41PM 43.4297 -93.1197 355° North 187 215 8,000  Level Minneapolis Center
06:42PM 43.4800 -93.1244 356° North 184 212 8,000  Level Minneapolis Center
06:43PM 43.5358 -93.1272 358° North 186 214 8,000  Level Minneapolis Center
06:44PM 43.5869 -93.1336 355° North 188 216 8,000  Level Minneapolis Center
06:45PM 43.6436 -93.1381 357° North 189 217 8,000  Level Minneapolis Center
06:46PM 43.6953 -93.1400 358° North 188 216 8,000  Level Minneapolis Center
06:47PM 43.7514 -93.1419 359° North 189 217 8,000  Level Minneapolis Center
06:48PM 43.8028 -93.1439 358° North 186 214 8,000  Level Minneapolis Center
06:49PM 43.8581 -93.1453 359° North 184 212 8,000  Level Minneapolis Center
06:50PM 43.9100 -93.1467 359° North 189 217 8,000 -240 Level Minneapolis Center
06:51PM 43.9683 -93.1492 358° North 195 224 7,600 -480 Descending Minneapolis Center
06:52PM 44.0256 -93.1506 359° North 209 241 7,100 -600 Descending Minneapolis Center
06:53PM 44.0867 -93.1522 359° North 210 242 6,400 -660 Descending Minneapolis Center
06:54PM 44.1458 -93.1550 358° North 213 245 5,800 -240 Descending Minneapolis Center
06:55PM 44.2000 -93.1539 North 192 221 5,900  Climbing Minneapolis Center
06:56PM 44.2525 -93.1581 357° North 189 217 5,900 -120 Level Minneapolis Center
06:57PM 44.3167 -93.1597 359° North 193 222 5,700 -540 Descending Minneapolis Center
06:58PM 44.3750 -93.1622 358° North 209 241 4,900 -780 Descending Minneapolis Center
06:59PM 44.4353 -93.1633 359° North 216 249 4,100 -540 Descending Minneapolis Center
07:00PM 44.4922 -93.1647 359° North 214 246 3,900 -240 Descending Minneapolis Center